sensor_id;sensor_type;location;lat;lon;timestamp;P1;durP1;ratioP1;P2;durP2;ratioP2
7033;SDS011;3558;53.176;10.412;2023-09-19T02:45:30;2.72;;;1.30;;
7033;SDS011;3558;53.176;10.412;2023-09-19T02:47:56;2.47;;;1.50;;
7033;SDS011;3558;53.176;10.412;2023-09-19T02:50:22;3.30;;;1.40;;
7033;SDS011;3558;53.176;10.412;2023-09-19T02:52:48;2.90;;;1.38;;
7033;SDS011;3558;53.176;10.412;2023-09-19T02:55:14;2.03;;;1.30;;
7033;SDS011;3558;53.176;10.412;2023-09-19T02:57:44;3.13;;;1.48;;
7033;SDS011;3558;53.176;10.412;2023-09-19T03:00:11;3.05;;;1.23;;
7033;SDS011;3558;53.176;10.412;2023-09-19T03:02:37;3.20;;;1.30;;
7033;SDS011;3558;53.176;10.412;2023-09-19T03:05:05;3.42;;;1.42;;
7033;SDS011;3558;53.176;10.412;2023-09-19T03:07:31;2.53;;;1.50;;
7033;SDS011;3558;53.176;10.412;2023-09-19T03:09:57;2.70;;;1.50;;
7033;SDS011;3558;53.176;10.412;2023-09-19T03:12:22;2.73;;;1.40;;
7033;SDS011;3558;53.176;10.412;2023-09-19T03:14:48;3.10;;;1.25;;
7033;SDS011;3558;53.176;10.412;2023-09-19T03:17:13;3.33;;;1.30;;
7033;SDS011;3558;53.176;10.412;2023-09-19T03:19:39;2.83;;;1.30;;
7033;SDS011;3558;53.176;10.412;2023-09-19T03:22:05;3.35;;;1.70;;
7033;SDS011;3558;53.176;10.412;2023-09-19T03:24:30;5.23;;;1.63;;
7033;SDS011;3558;53.176;10.412;2023-09-19T03:26:56;3.33;;;1.40;;
7033;SDS011;3558;53.176;10.412;2023-09-19T03:29:22;3.00;;;1.30;;
7033;SDS011;3558;53.176;10.412;2023-09-19T03:31:48;2.60;;;1.30;;
7033;SDS011;3558;53.176;10.412;2023-09-19T03:34:13;3.40;;;1.50;;
7033;SDS011;3558;53.176;10.412;2023-09-19T03:36:39;2.80;;;1.40;;
7033;SDS011;3558;53.176;10.412;2023-09-19T03:39:05;2.00;;;1.30;;
7033;SDS011;3558;53.176;10.412;2023-09-19T03:41:31;2.25;;;1.30;;
7033;SDS011;3558;53.176;10.412;2023-09-19T03:43:58;3.40;;;1.40;;
7033;SDS011;3558;53.176;10.412;2023-09-19T03:46:23;2.83;;;1.42;;
7033;SDS011;3558;53.176;10.412;2023-09-19T03:48:49;2.97;;;1.30;;
7033;SDS011;3558;53.176;10.412;2023-09-19T03:51:15;2.75;;;1.20;;
7033;SDS011;3558;53.176;10.412;2023-09-19T03:53:41;2.20;;;1.40;;
7033;SDS011;3558;53.176;10.412;2023-09-19T03:56:06;2.42;;;1.45;;
7033;SDS011;3558;53.176;10.412;2023-09-19T03:58:33;3.30;;;1.30;;
7033;SDS011;3558;53.176;10.412;2023-09-19T04:01:03;3.35;;;1.67;;
7033;SDS011;3558;53.176;10.412;2023-09-19T04:03:28;3.25;;;1.33;;
7033;SDS011;3558;53.176;10.412;2023-09-19T04:06:00;2.33;;;1.20;;
7033;SDS011;3558;53.176;10.412;2023-09-19T04:08:26;3.00;;;1.35;;
7033;SDS011;3558;53.176;10.412;2023-09-19T04:10:52;2.83;;;1.40;;
7033;SDS011;3558;53.176;10.412;2023-09-19T04:13:18;2.20;;;1.30;;
7033;SDS011;3558;53.176;10.412;2023-09-19T04:15:43;4.03;;;1.55;;
7033;SDS011;3558;53.176;10.412;2023-09-19T04:18:11;2.80;;;1.30;;
7033;SDS011;3558;53.176;10.412;2023-09-19T04:20:37;2.67;;;1.30;;
7033;SDS011;3558;53.176;10.412;2023-09-19T04:23:02;2.80;;;1.50;;
7033;SDS011;3558;53.176;10.412;2023-09-19T04:25:30;1.98;;;1.30;;
7033;SDS011;3558;53.176;10.412;2023-09-19T04:27:55;2.93;;;1.40;;
7033;SDS011;3558;53.176;10.412;2023-09-19T04:30:21;3.00;;;1.50;;
7033;SDS011;3558;53.176;10.412;2023-09-19T04:32:46;3.03;;;1.40;;
7033;SDS011;3558;53.176;10.412;2023-09-19T04:35:15;2.80;;;1.40;;
7033;SDS011;3558;53.176;10.412;2023-09-19T04:37:41;3.00;;;1.53;;
7033;SDS011;3558;53.176;10.412;2023-09-19T04:40:09;4.10;;;1.60;;
7033;SDS011;3558;53.176;10.412;2023-09-19T04:42:40;3.37;;;1.40;;
7033;SDS011;3558;53.176;10.412;2023-09-19T04:45:06;3.63;;;1.42;;
7033;SDS011;3558;53.176;10.412;2023-09-19T04:47:34;2.40;;;1.20;;
7033;SDS011;3558;53.176;10.412;2023-09-19T04:50:00;2.30;;;1.40;;
7033;SDS011;3558;53.176;10.412;2023-09-19T04:52:25;2.80;;;1.30;;
7033;SDS011;3558;53.176;10.412;2023-09-19T04:54:51;2.70;;;1.50;;
7033;SDS011;3558;53.176;10.412;2023-09-19T04:57:17;2.30;;;1.20;;
7033;SDS011;3558;53.176;10.412;2023-09-19T04:59:43;2.00;;;1.07;;
7033;SDS011;3558;53.176;10.412;2023-09-19T05:02:08;5.37;;;1.60;;
7033;SDS011;3558;53.176;10.412;2023-09-19T05:04:34;3.37;;;1.50;;
7033;SDS011;3558;53.176;10.412;2023-09-19T05:07:00;3.00;;;1.30;;
7033;SDS011;3558;53.176;10.412;2023-09-19T05:09:28;2.17;;;1.13;;
7033;SDS011;3558;53.176;10.412;2023-09-19T05:11:54;3.13;;;1.40;;
7033;SDS011;3558;53.176;10.412;2023-09-19T05:14:19;3.20;;;1.50;;
7033;SDS011;3558;53.176;10.412;2023-09-19T05:16:46;2.00;;;1.10;;
7033;SDS011;3558;53.176;10.412;2023-09-19T05:19:11;3.45;;;1.20;;
7033;SDS011;3558;53.176;10.412;2023-09-19T05:21:37;3.17;;;1.40;;
7033;SDS011;3558;53.176;10.412;2023-09-19T05:24:04;3.50;;;1.40;;
7033;SDS011;3558;53.176;10.412;2023-09-19T05:26:31;3.20;;;1.45;;
7033;SDS011;3558;53.176;10.412;2023-09-19T05:28:57;3.22;;;1.30;;
7033;SDS011;3558;53.176;10.412;2023-09-19T05:31:22;2.83;;;1.40;;
7033;SDS011;3558;53.176;10.412;2023-09-19T05:33:49;3.15;;;1.40;;
7033;SDS011;3558;53.176;10.412;2023-09-19T05:36:15;4.07;;;1.33;;
7033;SDS011;3558;53.176;10.412;2023-09-19T05:38:41;4.38;;;1.70;;
7033;SDS011;3558;53.176;10.412;2023-09-19T05:41:07;3.77;;;1.20;;
7033;SDS011;3558;53.176;10.412;2023-09-19T05:43:34;3.03;;;1.27;;
7033;SDS011;3558;53.176;10.412;2023-09-19T05:46:02;3.37;;;1.40;;
7033;SDS011;3558;53.176;10.412;2023-09-19T05:48:28;3.03;;;1.60;;
7033;SDS011;3558;53.176;10.412;2023-09-19T05:50:53;2.33;;;1.30;;
7033;SDS011;3558;53.176;10.412;2023-09-19T05:53:19;3.73;;;1.50;;
7033;SDS011;3558;53.176;10.412;2023-09-19T05:55:44;2.63;;;1.30;;
7033;SDS011;3558;53.176;10.412;2023-09-19T05:58:10;3.47;;;1.52;;
7033;SDS011;3558;53.176;10.412;2023-09-19T06:00:39;2.45;;;1.35;;
7033;SDS011;3558;53.176;10.412;2023-09-19T06:03:06;3.47;;;1.48;;
7033;SDS011;3558;53.176;10.412;2023-09-19T06:05:32;2.38;;;1.20;;
7033;SDS011;3558;53.176;10.412;2023-09-19T06:07:58;2.92;;;1.33;;
7033;SDS011;3558;53.176;10.412;2023-09-19T06:10:32;3.10;;;1.40;;
7033;SDS011;3558;53.176;10.412;2023-09-19T06:12:59;4.15;;;1.50;;
7033;SDS011;3558;53.176;10.412;2023-09-19T06:15:25;3.00;;;1.50;;
7033;SDS011;3558;53.176;10.412;2023-09-19T06:17:52;4.18;;;1.52;;
7033;SDS011;3558;53.176;10.412;2023-09-19T06:20:23;4.70;;;1.80;;
7033;SDS011;3558;53.176;10.412;2023-09-19T06:22:50;4.15;;;1.77;;
7033;SDS011;3558;53.176;10.412;2023-09-19T06:25:16;3.88;;;1.50;;
7033;SDS011;3558;53.176;10.412;2023-09-19T06:27:51;4.45;;;1.60;;
7033;SDS011;3558;53.176;10.412;2023-09-19T06:30:19;4.45;;;1.50;;
7033;SDS011;3558;53.176;10.412;2023-09-19T06:32:45;3.05;;;1.40;;
7033;SDS011;3558;53.176;10.412;2023-09-19T06:35:11;4.77;;;1.70;;
7033;SDS011;3558;53.176;10.412;2023-09-19T06:37:38;4.32;;;1.60;;
7033;SDS011;3558;53.176;10.412;2023-09-19T06:40:07;6.03;;;1.75;;
7033;SDS011;3558;53.176;10.412;2023-09-19T06:42:39;4.47;;;1.70;;
7033;SDS011;3558;53.176;10.412;2023-09-19T06:45:05;3.22;;;1.60;;
7033;SDS011;3558;53.176;10.412;2023-09-19T06:47:31;5.28;;;1.90;;
7033;SDS011;3558;53.176;10.412;2023-09-19T06:49:57;4.95;;;1.73;;
7033;SDS011;3558;53.176;10.412;2023-09-19T06:52:22;5.17;;;1.70;;
7033;SDS011;3558;53.176;10.412;2023-09-19T06:54:48;3.80;;;1.70;;
7033;SDS011;3558;53.176;10.412;2023-09-19T06:57:15;4.05;;;1.60;;
7033;SDS011;3558;53.176;10.412;2023-09-19T06:59:41;4.05;;;1.85;;
7033;SDS011;3558;53.176;10.412;2023-09-19T07:02:06;4.23;;;1.80;;
7033;SDS011;3558;53.176;10.412;2023-09-19T07:04:33;4.88;;;1.80;;
7033;SDS011;3558;53.176;10.412;2023-09-19T07:06:58;5.13;;;1.80;;
7033;SDS011;3558;53.176;10.412;2023-09-19T07:09:24;5.15;;;1.90;;
7033;SDS011;3558;53.176;10.412;2023-09-19T07:11:52;4.82;;;1.67;;
7033;SDS011;3558;53.176;10.412;2023-09-19T07:14:18;4.68;;;1.65;;
7033;SDS011;3558;53.176;10.412;2023-09-19T07:16:43;4.60;;;1.90;;
7033;SDS011;3558;53.176;10.412;2023-09-19T07:19:10;4.97;;;1.80;;
7033;SDS011;3558;53.176;10.412;2023-09-19T07:21:36;5.17;;;2.07;;
7033;SDS011;3558;53.176;10.412;2023-09-19T07:24:03;5.00;;;1.65;;
7033;SDS011;3558;53.176;10.412;2023-09-19T07:26:29;5.95;;;2.40;;
7033;SDS011;3558;53.176;10.412;2023-09-19T07:28:56;6.28;;;2.15;;
7033;SDS011;3558;53.176;10.412;2023-09-19T07:31:22;5.18;;;2.35;;
7033;SDS011;3558;53.176;10.412;2023-09-19T07:33:48;5.20;;;2.30;;
7033;SDS011;3558;53.176;10.412;2023-09-19T07:36:14;4.40;;;1.90;;
7033;SDS011;3558;53.176;10.412;2023-09-19T07:38:40;5.00;;;1.90;;
7033;SDS011;3558;53.176;10.412;2023-09-19T07:41:06;4.80;;;2.05;;
7033;SDS011;3558;53.176;10.412;2023-09-19T07:43:32;5.77;;;2.17;;
7033;SDS011;3558;53.176;10.412;2023-09-19T07:46:02;6.45;;;2.20;;
7033;SDS011;3558;53.176;10.412;2023-09-19T07:48:28;6.05;;;2.35;;
7033;SDS011;3558;53.176;10.412;2023-09-19T07:50:54;4.72;;;1.92;;
7033;SDS011;3558;53.176;10.412;2023-09-19T07:53:19;5.33;;;2.00;;
7033;SDS011;3558;53.176;10.412;2023-09-19T07:55:45;6.10;;;2.40;;
7033;SDS011;3558;53.176;10.412;2023-09-19T07:58:13;4.43;;;2.10;;
7033;SDS011;3558;53.176;10.412;2023-09-19T08:00:38;5.67;;;2.47;;
7033;SDS011;3558;53.176;10.412;2023-09-19T08:03:04;5.78;;;2.17;;
7033;SDS011;3558;53.176;10.412;2023-09-19T08:05:30;5.63;;;2.50;;
7033;SDS011;3558;53.176;10.412;2023-09-19T08:07:58;6.35;;;2.10;;
7033;SDS011;3558;53.176;10.412;2023-09-19T08:10:24;6.25;;;2.33;;
7033;SDS011;3558;53.176;10.412;2023-09-19T08:12:52;4.75;;;1.90;;
7033;SDS011;3558;53.176;10.412;2023-09-19T08:15:23;5.23;;;2.10;;
7033;SDS011;3558;53.176;10.412;2023-09-19T08:17:48;3.97;;;2.00;;
7033;SDS011;3558;53.176;10.412;2023-09-19T08:20:15;3.90;;;2.07;;
7033;SDS011;3558;53.176;10.412;2023-09-19T08:22:43;4.75;;;1.98;;
7033;SDS011;3558;53.176;10.412;2023-09-19T08:25:11;5.60;;;2.20;;
7033;SDS011;3558;53.176;10.412;2023-09-19T08:27:38;6.00;;;2.17;;
7033;SDS011;3558;53.176;10.412;2023-09-19T08:30:04;4.77;;;2.07;;
7033;SDS011;3558;53.176;10.412;2023-09-19T08:32:31;5.13;;;1.83;;
7033;SDS011;3558;53.176;10.412;2023-09-19T08:34:56;6.53;;;2.20;;
7033;SDS011;3558;53.176;10.412;2023-09-19T08:37:22;6.65;;;1.88;;
7033;SDS011;3558;53.176;10.412;2023-09-19T08:39:47;5.33;;;1.87;;
7033;SDS011;3558;53.176;10.412;2023-09-19T08:42:13;6.03;;;2.00;;
7033;SDS011;3558;53.176;10.412;2023-09-19T08:44:39;3.90;;;1.63;;
7033;SDS011;3558;53.176;10.412;2023-09-19T08:47:14;3.70;;;1.67;;
7033;SDS011;3558;53.176;10.412;2023-09-19T08:52:25;4.47;;;1.55;;
7033;SDS011;3558;53.176;10.412;2023-09-19T08:54:53;3.92;;;1.60;;
7033;SDS011;3558;53.176;10.412;2023-09-19T08:57:26;4.30;;;1.80;;
7033;SDS011;3558;53.176;10.412;2023-09-19T08:59:54;4.93;;;1.83;;
7033;SDS011;3558;53.176;10.412;2023-09-19T09:02:21;4.03;;;1.50;;
7033;SDS011;3558;53.176;10.412;2023-09-19T09:04:48;4.57;;;1.52;;
7033;SDS011;3558;53.176;10.412;2023-09-19T09:07:15;3.22;;;1.48;;
7033;SDS011;3558;53.176;10.412;2023-09-19T09:09:44;3.97;;;1.63;;
7033;SDS011;3558;53.176;10.412;2023-09-19T09:12:14;4.93;;;1.70;;
7033;SDS011;3558;53.176;10.412;2023-09-19T09:14:40;5.55;;;1.67;;
7033;SDS011;3558;53.176;10.412;2023-09-19T09:17:11;3.25;;;1.40;;
7033;SDS011;3558;53.176;10.412;2023-09-19T09:19:37;3.95;;;1.73;;
7033;SDS011;3558;53.176;10.412;2023-09-19T09:22:09;4.33;;;1.53;;
7033;SDS011;3558;53.176;10.412;2023-09-19T09:24:36;4.20;;;1.48;;
7033;SDS011;3558;53.176;10.412;2023-09-19T09:27:04;4.63;;;1.65;;
7033;SDS011;3558;53.176;10.412;2023-09-19T09:29:40;3.47;;;1.50;;
7033;SDS011;3558;53.176;10.412;2023-09-19T09:32:24;5.25;;;1.60;;
7033;SDS011;3558;53.176;10.412;2023-09-19T09:34:58;3.27;;;1.40;;
7033;SDS011;3558;53.176;10.412;2023-09-19T09:37:25;3.72;;;1.90;;
7033;SDS011;3558;53.176;10.412;2023-09-19T09:40:02;4.83;;;1.70;;
7033;SDS011;3558;53.176;10.412;2023-09-19T09:42:50;4.88;;;1.45;;
7033;SDS011;3558;53.176;10.412;2023-09-19T09:45:21;3.63;;;1.30;;
7033;SDS011;3558;53.176;10.412;2023-09-19T09:48:01;4.32;;;1.60;;
7033;SDS011;3558;53.176;10.412;2023-09-19T09:50:39;3.92;;;1.50;;
7033;SDS011;3558;53.176;10.412;2023-09-19T09:53:28;4.38;;;1.67;;
7033;SDS011;3558;53.176;10.412;2023-09-19T09:56:01;4.07;;;1.52;;
7033;SDS011;3558;53.176;10.412;2023-09-19T09:58:30;4.45;;;1.42;;
7033;SDS011;3558;53.176;10.412;2023-09-19T10:01:05;4.05;;;1.55;;
7033;SDS011;3558;53.176;10.412;2023-09-19T10:03:37;4.10;;;1.70;;
7033;SDS011;3558;53.176;10.412;2023-09-19T10:06:08;4.90;;;1.60;;
7033;SDS011;3558;53.176;10.412;2023-09-19T10:12:05;2.67;;;1.40;;
7033;SDS011;3558;53.176;10.412;2023-09-19T10:14:34;4.00;;;1.80;;
7033;SDS011;3558;53.176;10.412;2023-09-19T10:17:03;5.15;;;1.60;;
7033;SDS011;3558;53.176;10.412;2023-09-19T10:22:22;3.47;;;1.40;;
7033;SDS011;3558;53.176;10.412;2023-09-19T10:24:49;5.20;;;1.80;;
7033;SDS011;3558;53.176;10.412;2023-09-19T10:27:18;3.53;;;1.30;;
7033;SDS011;3558;53.176;10.412;2023-09-19T10:29:45;4.07;;;1.70;;
7033;SDS011;3558;53.176;10.412;2023-09-19T10:32:15;3.38;;;1.30;;
7033;SDS011;3558;53.176;10.412;2023-09-19T10:34:44;3.65;;;1.50;;
7033;SDS011;3558;53.176;10.412;2023-09-19T10:37:13;3.70;;;1.42;;
7033;SDS011;3558;53.176;10.412;2023-09-19T10:39:41;3.53;;;1.50;;
7033;SDS011;3558;53.176;10.412;2023-09-19T10:42:12;4.47;;;1.60;;
7033;SDS011;3558;53.176;10.412;2023-09-19T10:44:43;3.07;;;1.20;;
7033;SDS011;3558;53.176;10.412;2023-09-19T10:47:12;3.42;;;1.25;;
7033;SDS011;3558;53.176;10.412;2023-09-19T10:49:44;2.90;;;1.20;;
7033;SDS011;3558;53.176;10.412;2023-09-19T10:52:11;3.50;;;1.40;;
7033;SDS011;3558;53.176;10.412;2023-09-19T10:54:43;3.60;;;1.40;;
7033;SDS011;3558;53.176;10.412;2023-09-19T10:57:13;3.80;;;1.60;;
7033;SDS011;3558;53.176;10.412;2023-09-19T11:00:00;3.03;;;1.40;;
7033;SDS011;3558;53.176;10.412;2023-09-19T11:05:34;2.55;;;1.30;;
7033;SDS011;3558;53.176;10.412;2023-09-19T11:08:00;3.40;;;1.35;;
7033;SDS011;3558;53.176;10.412;2023-09-19T11:10:43;3.05;;;1.33;;
7033;SDS011;3558;53.176;10.412;2023-09-19T11:13:29;4.25;;;1.40;;
7033;SDS011;3558;53.176;10.412;2023-09-19T11:26:47;3.20;;;1.33;;
7033;SDS011;3558;53.176;10.412;2023-09-19T11:29:29;3.00;;;1.47;;
7033;SDS011;3558;53.176;10.412;2023-09-19T11:31:56;2.70;;;1.27;;
7033;SDS011;3558;53.176;10.412;2023-09-19T11:34:37;3.35;;;1.30;;
7033;SDS011;3558;53.176;10.412;2023-09-19T11:39:36;3.63;;;1.30;;
7033;SDS011;3558;53.176;10.412;2023-09-19T11:48:15;3.78;;;1.38;;
7033;SDS011;3558;53.176;10.412;2023-09-19T11:50:43;3.25;;;1.40;;
7033;SDS011;3558;53.176;10.412;2023-09-19T11:53:12;3.30;;;1.33;;
7033;SDS011;3558;53.176;10.412;2023-09-19T11:55:39;2.87;;;1.23;;
7033;SDS011;3558;53.176;10.412;2023-09-19T11:58:06;3.33;;;1.50;;
7033;SDS011;3558;53.176;10.412;2023-09-19T12:00:33;3.20;;;1.42;;
7033;SDS011;3558;53.176;10.412;2023-09-19T12:03:02;4.25;;;1.42;;
7033;SDS011;3558;53.176;10.412;2023-09-19T12:05:34;2.42;;;1.30;;
7033;SDS011;3558;53.176;10.412;2023-09-19T12:07:59;3.65;;;1.40;;
7033;SDS011;3558;53.176;10.412;2023-09-19T12:10:26;3.95;;;1.70;;
7033;SDS011;3558;53.176;10.412;2023-09-19T12:12:52;2.80;;;1.27;;
7033;SDS011;3558;53.176;10.412;2023-09-19T12:15:24;3.35;;;1.30;;
7033;SDS011;3558;53.176;10.412;2023-09-19T12:17:59;2.90;;;1.33;;
7033;SDS011;3558;53.176;10.412;2023-09-19T12:20:25;3.05;;;1.42;;
7033;SDS011;3558;53.176;10.412;2023-09-19T12:23:12;3.55;;;1.40;;
7033;SDS011;3558;53.176;10.412;2023-09-19T12:25:45;2.50;;;1.30;;
7033;SDS011;3558;53.176;10.412;2023-09-19T12:28:12;3.73;;;1.60;;
7033;SDS011;3558;53.176;10.412;2023-09-19T12:30:46;3.28;;;1.48;;
7033;SDS011;3558;53.176;10.412;2023-09-19T12:33:16;3.43;;;1.60;;
7033;SDS011;3558;53.176;10.412;2023-09-19T12:35:44;3.70;;;1.55;;
7033;SDS011;3558;53.176;10.412;2023-09-19T12:38:10;4.23;;;1.50;;
7033;SDS011;3558;53.176;10.412;2023-09-19T12:40:37;3.33;;;1.45;;
7033;SDS011;3558;53.176;10.412;2023-09-19T12:43:07;4.53;;;1.52;;
7033;SDS011;3558;53.176;10.412;2023-09-19T12:45:34;3.63;;;1.42;;
7033;SDS011;3558;53.176;10.412;2023-09-19T12:51:04;2.85;;;1.55;;
7033;SDS011;3558;53.176;10.412;2023-09-19T12:53:36;3.17;;;1.52;;
7033;SDS011;3558;53.176;10.412;2023-09-19T12:56:07;3.63;;;1.65;;
7033;SDS011;3558;53.176;10.412;2023-09-19T12:58:34;3.80;;;1.70;;
7033;SDS011;3558;53.176;10.412;2023-09-19T13:01:14;3.97;;;1.60;;
7033;SDS011;3558;53.176;10.412;2023-09-19T13:03:40;3.25;;;1.58;;
7033;SDS011;3558;53.176;10.412;2023-09-19T13:06:05;4.33;;;1.60;;
7033;SDS011;3558;53.176;10.412;2023-09-19T13:08:31;3.58;;;1.70;;
7033;SDS011;3558;53.176;10.412;2023-09-19T13:11:10;3.35;;;1.75;;
7033;SDS011;3558;53.176;10.412;2023-09-19T13:13:43;4.65;;;2.00;;
7033;SDS011;3558;53.176;10.412;2023-09-19T13:16:13;4.13;;;1.80;;
7033;SDS011;3558;53.176;10.412;2023-09-19T13:18:47;4.53;;;1.80;;
7033;SDS011;3558;53.176;10.412;2023-09-19T13:21:26;3.80;;;1.70;;
7033;SDS011;3558;53.176;10.412;2023-09-19T13:24:18;4.07;;;1.80;;
7033;SDS011;3558;53.176;10.412;2023-09-19T13:26:48;2.80;;;1.63;;
7033;SDS011;3558;53.176;10.412;2023-09-19T13:29:14;4.10;;;1.77;;
7033;SDS011;3558;53.176;10.412;2023-09-19T13:31:45;4.68;;;2.00;;
7033;SDS011;3558;53.176;10.412;2023-09-19T13:34:14;3.60;;;1.70;;
7033;SDS011;3558;53.176;10.412;2023-09-19T13:36:43;4.18;;;1.70;;
7033;SDS011;3558;53.176;10.412;2023-09-19T13:39:09;3.33;;;1.60;;
7033;SDS011;3558;53.176;10.412;2023-09-19T13:41:37;3.15;;;1.80;;
7033;SDS011;3558;53.176;10.412;2023-09-19T13:44:03;4.25;;;1.90;;
7033;SDS011;3558;53.176;10.412;2023-09-19T13:46:29;4.47;;;1.70;;
7033;SDS011;3558;53.176;10.412;2023-09-19T13:48:58;4.13;;;1.80;;
7033;SDS011;3558;53.176;10.412;2023-09-19T13:51:24;2.80;;;1.50;;
7033;SDS011;3558;53.176;10.412;2023-09-19T13:53:51;3.72;;;1.70;;
7033;SDS011;3558;53.176;10.412;2023-09-19T13:56:16;5.00;;;1.63;;
7033;SDS011;3558;53.176;10.412;2023-09-19T13:58:42;4.53;;;1.70;;
7033;SDS011;3558;53.176;10.412;2023-09-19T14:01:08;4.37;;;1.80;;
7033;SDS011;3558;53.176;10.412;2023-09-19T14:03:38;3.92;;;1.80;;
7033;SDS011;3558;53.176;10.412;2023-09-19T14:06:11;3.20;;;1.83;;
7033;SDS011;3558;53.176;10.412;2023-09-19T14:08:37;3.85;;;1.58;;
7033;SDS011;3558;53.176;10.412;2023-09-19T14:11:07;3.63;;;1.70;;
7033;SDS011;3558;53.176;10.412;2023-09-19T14:13:32;4.33;;;2.00;;
7033;SDS011;3558;53.176;10.412;2023-09-19T14:16:02;3.45;;;1.65;;
7033;SDS011;3558;53.176;10.412;2023-09-19T14:18:29;3.47;;;1.88;;
7033;SDS011;3558;53.176;10.412;2023-09-19T14:20:55;3.42;;;1.80;;
7033;SDS011;3558;53.176;10.412;2023-09-19T14:23:21;3.67;;;1.67;;
7033;SDS011;3558;53.176;10.412;2023-09-19T14:25:48;3.92;;;1.88;;
7033;SDS011;3558;53.176;10.412;2023-09-19T14:28:13;5.10;;;1.90;;
7033;SDS011;3558;53.176;10.412;2023-09-19T14:30:39;4.18;;;1.60;;
7033;SDS011;3558;53.176;10.412;2023-09-19T14:33:04;3.33;;;1.63;;
7033;SDS011;3558;53.176;10.412;2023-09-19T14:35:31;3.53;;;1.65;;
7033;SDS011;3558;53.176;10.412;2023-09-19T14:37:56;3.97;;;1.87;;
7033;SDS011;3558;53.176;10.412;2023-09-19T14:40:22;3.75;;;1.67;;
7033;SDS011;3558;53.176;10.412;2023-09-19T14:42:47;3.60;;;1.80;;
7033;SDS011;3558;53.176;10.412;2023-09-19T14:45:13;2.92;;;1.63;;
7033;SDS011;3558;53.176;10.412;2023-09-19T14:47:42;4.40;;;1.80;;
7033;SDS011;3558;53.176;10.412;2023-09-19T14:50:09;2.97;;;1.70;;
7033;SDS011;3558;53.176;10.412;2023-09-19T14:52:35;4.10;;;1.60;;
7033;SDS011;3558;53.176;10.412;2023-09-19T14:55:01;4.15;;;2.00;;
7033;SDS011;3558;53.176;10.412;2023-09-19T14:57:27;3.10;;;1.60;;
7033;SDS011;3558;53.176;10.412;2023-09-19T14:59:52;3.85;;;1.85;;
7033;SDS011;3558;53.176;10.412;2023-09-19T15:02:18;4.40;;;1.90;;
7033;SDS011;3558;53.176;10.412;2023-09-19T15:04:44;3.60;;;1.70;;
7033;SDS011;3558;53.176;10.412;2023-09-19T15:07:11;3.78;;;1.98;;
7033;SDS011;3558;53.176;10.412;2023-09-19T15:09:37;4.00;;;1.90;;
7033;SDS011;3558;53.176;10.412;2023-09-19T15:12:03;3.90;;;1.80;;
7033;SDS011;3558;53.176;10.412;2023-09-19T15:14:29;4.10;;;1.80;;
7033;SDS011;3558;53.176;10.412;2023-09-19T15:16:54;4.13;;;1.60;;
7033;SDS011;3558;53.176;10.412;2023-09-19T15:19:20;3.83;;;1.77;;
7033;SDS011;3558;53.176;10.412;2023-09-19T15:21:47;4.43;;;1.70;;
7033;SDS011;3558;53.176;10.412;2023-09-19T15:24:13;4.38;;;1.77;;
7033;SDS011;3558;53.176;10.412;2023-09-19T15:26:39;3.33;;;1.53;;
7033;SDS011;3558;53.176;10.412;2023-09-19T15:29:05;3.28;;;1.52;;
7033;SDS011;3558;53.176;10.412;2023-09-19T15:31:32;3.95;;;1.90;;
7033;SDS011;3558;53.176;10.412;2023-09-19T15:33:58;2.83;;;1.70;;
7033;SDS011;3558;53.176;10.412;2023-09-19T15:36:23;3.53;;;1.75;;
7033;SDS011;3558;53.176;10.412;2023-09-19T15:41:37;3.92;;;1.73;;
7033;SDS011;3558;53.176;10.412;2023-09-19T15:44:16;2.90;;;1.70;;
7033;SDS011;3558;53.176;10.412;2023-09-19T15:46:43;3.27;;;1.80;;
7033;SDS011;3558;53.176;10.412;2023-09-19T15:49:09;4.07;;;1.67;;
7033;SDS011;3558;53.176;10.412;2023-09-19T15:51:35;3.17;;;1.60;;
7033;SDS011;3558;53.176;10.412;2023-09-19T15:54:01;3.30;;;1.60;;
7033;SDS011;3558;53.176;10.412;2023-09-19T15:56:31;3.87;;;1.60;;
7033;SDS011;3558;53.176;10.412;2023-09-19T15:58:59;4.00;;;1.60;;
7033;SDS011;3558;53.176;10.412;2023-09-19T16:01:25;2.90;;;1.50;;
7033;SDS011;3558;53.176;10.412;2023-09-19T16:03:52;3.70;;;1.70;;
7033;SDS011;3558;53.176;10.412;2023-09-19T16:06:20;2.92;;;1.27;;
7033;SDS011;3558;53.176;10.412;2023-09-19T16:08:51;2.97;;;1.52;;
7033;SDS011;3558;53.176;10.412;2023-09-19T16:11:18;3.30;;;1.60;;
7033;SDS011;3558;53.176;10.412;2023-09-19T16:13:48;4.13;;;1.48;;
7033;SDS011;3558;53.176;10.412;2023-09-19T16:16:14;3.08;;;1.60;;
7033;SDS011;3558;53.176;10.412;2023-09-19T16:18:48;3.58;;;1.60;;
7033;SDS011;3558;53.176;10.412;2023-09-19T16:21:18;4.10;;;1.70;;
7033;SDS011;3558;53.176;10.412;2023-09-19T16:23:45;4.15;;;1.70;;
7033;SDS011;3558;53.176;10.412;2023-09-19T16:26:12;3.95;;;1.60;;
7033;SDS011;3558;53.176;10.412;2023-09-19T16:28:38;4.20;;;1.80;;
7033;SDS011;3558;53.176;10.412;2023-09-19T16:31:05;4.13;;;1.80;;
7033;SDS011;3558;53.176;10.412;2023-09-19T16:33:35;3.63;;;1.47;;
7033;SDS011;3558;53.176;10.412;2023-09-19T16:36:02;3.38;;;1.70;;
7033;SDS011;3558;53.176;10.412;2023-09-19T16:38:35;3.92;;;1.98;;
7033;SDS011;3558;53.176;10.412;2023-09-19T16:41:02;2.92;;;1.70;;
7033;SDS011;3558;53.176;10.412;2023-09-19T16:43:29;4.55;;;1.80;;
7033;SDS011;3558;53.176;10.412;2023-09-19T16:45:58;4.15;;;1.75;;
7033;SDS011;3558;53.176;10.412;2023-09-19T16:48:25;4.63;;;1.77;;
7033;SDS011;3558;53.176;10.412;2023-09-19T16:50:52;4.03;;;1.90;;
7033;SDS011;3558;53.176;10.412;2023-09-19T16:53:19;4.13;;;2.00;;
7033;SDS011;3558;53.176;10.412;2023-09-19T16:55:45;4.05;;;1.90;;
7033;SDS011;3558;53.176;10.412;2023-09-19T16:58:12;4.15;;;2.00;;
7033;SDS011;3558;53.176;10.412;2023-09-19T17:00:38;4.30;;;2.08;;
7033;SDS011;3558;53.176;10.412;2023-09-19T17:03:04;4.70;;;2.10;;
7033;SDS011;3558;53.176;10.412;2023-09-19T17:05:30;4.22;;;1.95;;
7033;SDS011;3558;53.176;10.412;2023-09-19T17:07:56;4.75;;;1.70;;
7033;SDS011;3558;53.176;10.412;2023-09-19T17:10:26;4.00;;;1.70;;
7033;SDS011;3558;53.176;10.412;2023-09-19T17:12:56;4.75;;;1.75;;
7033;SDS011;3558;53.176;10.412;2023-09-19T17:15:21;4.50;;;1.70;;
7033;SDS011;3558;53.176;10.412;2023-09-19T17:17:49;5.90;;;1.77;;
7033;SDS011;3558;53.176;10.412;2023-09-19T17:20:14;2.95;;;1.52;;
7033;SDS011;3558;53.176;10.412;2023-09-19T17:22:40;6.43;;;2.00;;
7033;SDS011;3558;53.176;10.412;2023-09-19T17:25:06;4.63;;;1.75;;
7033;SDS011;3558;53.176;10.412;2023-09-19T17:27:32;3.53;;;1.60;;
7033;SDS011;3558;53.176;10.412;2023-09-19T17:29:58;3.97;;;1.80;;
7033;SDS011;3558;53.176;10.412;2023-09-19T17:32:23;3.72;;;1.63;;
7033;SDS011;3558;53.176;10.412;2023-09-19T17:34:49;2.80;;;1.47;;
7033;SDS011;3558;53.176;10.412;2023-09-19T17:37:14;3.85;;;1.70;;
7033;SDS011;3558;53.176;10.412;2023-09-19T17:39:40;4.27;;;1.80;;
7033;SDS011;3558;53.176;10.412;2023-09-19T17:42:06;3.70;;;1.60;;
7033;SDS011;3558;53.176;10.412;2023-09-19T17:44:32;3.92;;;1.65;;
7033;SDS011;3558;53.176;10.412;2023-09-19T17:47:00;4.60;;;1.65;;
7033;SDS011;3558;53.176;10.412;2023-09-19T17:49:26;4.03;;;1.55;;
7033;SDS011;3558;53.176;10.412;2023-09-19T17:51:52;3.20;;;1.77;;
7033;SDS011;3558;53.176;10.412;2023-09-19T17:54:17;3.92;;;1.40;;
7033;SDS011;3558;53.176;10.412;2023-09-19T17:56:43;4.23;;;1.83;;
7033;SDS011;3558;53.176;10.412;2023-09-19T17:59:09;4.35;;;1.70;;
7033;SDS011;3558;53.176;10.412;2023-09-19T18:01:34;4.60;;;1.73;;
7033;SDS011;3558;53.176;10.412;2023-09-19T18:04:02;3.30;;;1.58;;
7033;SDS011;3558;53.176;10.412;2023-09-19T18:06:29;2.42;;;1.30;;
7033;SDS011;3558;53.176;10.412;2023-09-19T18:08:56;2.65;;;1.48;;
7033;SDS011;3558;53.176;10.412;2023-09-19T18:11:22;3.00;;;1.35;;
7033;SDS011;3558;53.176;10.412;2023-09-19T18:13:52;3.33;;;1.35;;
7033;SDS011;3558;53.176;10.412;2023-09-19T18:16:19;2.70;;;1.45;;
7033;SDS011;3558;53.176;10.412;2023-09-19T18:18:45;3.25;;;1.30;;
7033;SDS011;3558;53.176;10.412;2023-09-19T18:21:16;3.35;;;1.40;;
7033;SDS011;3558;53.176;10.412;2023-09-19T18:23:54;4.45;;;1.58;;
7033;SDS011;3558;53.176;10.412;2023-09-19T18:26:22;3.15;;;1.50;;